Time;durP1;ratioP1;P1;durP2;ratioP2;P2;SDS_P1;SDS_P2;PMS_P1;PMS_P2;Temp;Humidity;BMP_temperature;BMP_pressure;BME280_temperature;BME280_humidity;BME280_pressure;Samples;Min_cycle;Max_cycle;Signal;HPM_P1;HPM_P2
2022/09/13 00:01:48;;;;;;;11.35;7.28;;;;;;;-145.01;100.00;64805.59;5053814;28;20434;-53
2022/09/13 00:04:13;;;;;;;15.60;7.78;;;;;;;-145.01;100.00;64805.59;5053195;28;20045;-54
2022/09/13 00:06:39;;;;;;;11.52;7.70;;;;;;;-145.01;100.00;64805.59;5055147;28;20025;-54
2022/09/13 00:09:04;;;;;;;12.20;6.85;;;;;;;-145.01;100.00;64805.59;5060312;28;20028;-53
2022/09/13 00:11:31;;;;;;;11.85;6.93;;;;;;;-145.01;100.00;64805.59;5056859;28;20045;-54
2022/09/13 00:13:56;;;;;;;14.55;6.90;;;;;;;-145.01;100.00;64805.59;5060463;28;20039;-55
2022/09/13 00:16:23;;;;;;;10.70;7.20;;;;;;;-145.01;100.00;64805.59;5049475;28;20123;-54
2022/09/13 00:18:49;;;;;;;13.90;7.05;;;;;;;-145.01;100.00;64805.59;5052660;28;20373;-54
2022/09/13 00:21:16;;;;;;;11.70;6.82;;;;;;;-145.01;100.00;64805.59;5051783;28;20041;-55
2022/09/13 00:23:46;;;;;;;12.38;6.90;;;;;;;-145.01;100.00;64805.59;5052892;28;20647;-54
2022/09/13 00:26:13;;;;;;;9.70;6.70;;;;;;;-145.01;100.00;64805.59;5054453;28;20028;-55
2022/09/13 00:28:39;;;;;;;9.90;6.45;;;;;;;-145.01;100.00;64805.59;5048052;28;20175;-55
2022/09/13 00:31:06;;;;;;;8.65;6.00;;;;;;;-145.01;100.00;64805.59;5054977;28;20024;-55
2022/09/13 00:33:31;;;;;;;12.48;6.32;;;;;;;-145.01;100.00;64805.59;5056044;28;20032;-54
2022/09/13 00:35:57;;;;;;;8.68;6.22;;;;;;;-145.01;100.00;64805.59;5050029;28;20031;-55
2022/09/13 00:38:23;;;;;;;11.65;7.25;;;;;;;-145.01;100.00;64805.59;5049931;28;20033;-53
2022/09/13 00:40:48;;;;;;;9.50;6.32;;;;;;;-145.01;100.00;64805.59;5081755;28;20041;-54
2022/09/13 00:43:18;;;;;;;10.50;6.68;;;;;;;-145.01;100.00;64805.59;5049738;28;20036;-53
2022/09/13 00:45:44;;;;;;;12.50;6.43;;;;;;;-145.01;100.00;64805.59;5049661;28;20052;-54
2022/09/13 00:48:20;;;;;;;10.07;6.45;;;;;;;-145.01;100.00;64805.59;5049621;28;20032;-55
2022/09/13 00:50:50;;;;;;;11.90;6.38;;;;;;;-145.01;100.00;64805.59;5052938;28;20029;-57
2022/09/13 00:53:24;;;;;;;9.13;6.60;;;;;;;-145.01;100.00;64805.59;5057425;28;20116;-55
2022/09/13 00:55:49;;;;;;;11.38;6.82;;;;;;;-145.01;100.00;64805.59;5054742;28;20025;-55
2022/09/13 00:58:24;;;;;;;9.15;5.82;;;;;;;-145.01;100.00;64805.59;5057805;28;20035;-56
2022/09/13 01:00:50;;;;;;;10.70;6.82;;;;;;;-145.01;100.00;64805.59;5085553;28;20040;-61
2022/09/13 01:03:16;;;;;;;9.55;6.70;;;;;;;-145.01;100.00;64805.59;5050994;28;20086;-55
2022/09/13 01:05:44;;;;;;;15.23;6.88;;;;;;;-145.01;100.00;64805.59;5052204;28;20044;-55
2022/09/13 01:08:21;;;;;;;10.98;6.93;;;;;;;-145.01;100.00;64805.59;5052421;28;20029;-55
2022/09/13 01:10:48;;;;;;;11.70;6.50;;;;;;;-145.01;100.00;64805.59;5055459;28;20055;-54
2022/09/13 01:13:20;;;;;;;10.10;7.40;;;;;;;-145.01;100.00;64805.59;5056251;28;20061;-54
2022/09/13 01:15:46;;;;;;;13.75;7.50;;;;;;;-145.01;100.00;64805.59;5047837;28;20025;-54
2022/09/13 01:18:11;;;;;;;14.32;8.25;;;;;;;-145.01;100.00;64805.59;5049102;28;20089;-54
2022/09/13 01:21:16;;;;;;;10.48;7.07;;;;;;;-145.01;100.00;64805.59;5047262;28;20033;-53
2022/09/13 01:24:18;;;;;;;11.68;7.60;;;;;;;-145.01;100.00;64805.59;5053080;28;20048;-54
2022/09/13 01:27:19;;;;;;;13.48;7.63;;;;;;;-145.01;100.00;64805.59;5053082;28;20078;-56
2022/09/13 01:30:07;;;;;;;11.27;7.55;;;;;;;-145.01;100.00;64805.59;5052880;28;20068;-56
2022/09/13 01:32:36;;;;;;;10.85;7.13;;;;;;;-145.01;100.00;64805.59;5049567;28;20036;-55
2022/09/13 01:35:07;;;;;;;13.00;7.43;;;;;;;-145.01;100.00;64805.59;5048621;28;20067;-55
2022/09/13 01:38:01;;;;;;;11.98;7.55;;;;;;;-145.01;100.00;64805.59;5057105;28;20468;-52
2022/09/13 01:40:28;;;;;;;10.15;7.22;;;;;;;-145.01;100.00;64805.59;5057115;28;20029;-55
2022/09/13 01:43:11;;;;;;;10.88;7.38;;;;;;;-145.01;100.00;64805.59;5060491;28;20131;-55
2022/09/13 01:46:15;;;;;;;11.93;7.82;;;;;;;-145.01;100.00;64805.59;5058822;28;20433;-55
2022/09/13 01:49:06;;;;;;;11.85;6.85;;;;;;;-145.01;100.00;64805.59;5046930;28;20041;-55
2022/09/13 01:51:36;;;;;;;11.65;7.18;;;;;;;-145.01;100.00;64805.59;5058692;28;20108;-54
2022/09/13 01:54:21;;;;;;;12.63;7.13;;;;;;;-145.01;100.00;64805.59;5063841;28;20025;-54
2022/09/13 01:56:57;;;;;;;12.32;7.32;;;;;;;-145.01;100.00;64805.59;5051297;28;20044;-54
2022/09/13 01:59:35;;;;;;;16.40;7.00;;;;;;;-145.01;100.00;64805.59;5055950;28;20471;-54
2022/09/13 02:02:06;;;;;;;12.35;7.18;;;;;;;-145.01;100.00;64805.59;5055058;28;20062;-55
2022/09/13 02:04:47;;;;;;;15.48;7.75;;;;;;;-145.01;100.00;64805.59;5056094;28;20655;-55
2022/09/13 02:07:15;;;;;;;14.27;7.65;;;;;;;-145.01;100.00;64805.59;5041973;28;20045;-55
2022/09/13 02:09:43;;;;;;;15.55;8.00;;;;;;;-145.01;100.00;64805.59;5050768;28;20025;-55
2022/09/13 02:12:22;;;;;;;12.55;8.00;;;;;;;-145.01;100.00;64805.59;5055381;28;20025;-55
2022/09/13 02:14:52;;;;;;;11.88;8.13;;;;;;;-145.01;100.00;64805.59;5050811;28;20031;-54
2022/09/13 02:17:23;;;;;;;17.15;8.30;;;;;;;-145.01;100.00;64805.59;5035100;28;20406;-54
2022/09/13 02:19:52;;;;;;;11.75;8.32;;;;;;;-145.01;100.00;64805.59;5067370;28;20025;-54
2022/09/13 02:22:26;;;;;;;19.27;8.40;;;;;;;-145.01;100.00;64805.59;5033992;28;20075;-52
2022/09/13 02:24:56;;;;;;;15.05;8.55;;;;;;;-145.01;100.00;64805.59;5084169;28;20402;-57
2022/09/13 02:27:26;;;;;;;14.95;9.00;;;;;;;-145.01;100.00;64805.59;5034630;28;20025;-55
2022/09/13 02:29:52;;;;;;;14.05;9.23;;;;;;;-145.01;100.00;64805.59;5093571;28;20112;-54
2022/09/13 02:32:21;;;;;;;14.85;8.50;;;;;;;-145.01;100.00;64805.59;5089293;28;20082;-53
2022/09/13 02:34:56;;;;;;;15.70;8.70;;;;;;;-145.01;100.00;64805.59;5077175;28;20027;-53
2022/09/13 02:37:22;;;;;;;13.48;8.70;;;;;;;-145.01;100.00;64805.59;5043159;28;20389;-53
2022/09/13 02:39:50;;;;;;;19.73;9.20;;;;;;;-145.01;100.00;64805.59;5064424;28;20028;-53
2022/09/13 02:42:18;;;;;;;12.18;7.90;;;;;;;-145.01;100.00;64805.59;5051852;28;20029;-54
2022/09/13 02:44:49;;;;;;;15.02;8.27;;;;;;;-145.01;100.00;64805.59;5042466;28;20067;-54
2022/09/13 02:47:42;;;;;;;14.95;8.95;;;;;;;-145.01;100.00;64805.59;5061096;28;20142;-55
2022/09/13 02:50:20;;;;;;;12.27;8.57;;;;;;;-145.01;100.00;64805.59;5058536;28;20036;-57
2022/09/13 02:53:15;;;;;;;15.48;7.93;;;;;;;-145.01;100.00;64805.59;5059645;28;20032;-54
2022/09/13 02:55:48;;;;;;;11.30;8.10;;;;;;;-145.01;100.00;64805.59;5050403;28;20029;-55
2022/09/13 02:58:55;;;;;;;11.52;8.13;;;;;;;-145.01;100.00;64805.59;5072111;28;20060;-53
2022/09/13 03:01:21;;;;;;;14.50;7.97;;;;;;;-145.01;100.00;64805.59;4959484;28;20023;-54
2022/09/13 03:03:47;;;;;;;10.30;7.50;;;;;;;-145.01;100.00;64805.59;4969892;28;20051;-54
2022/09/13 03:06:12;;;;;;;11.65;7.95;;;;;;;-145.01;100.00;64805.59;5015401;28;20045;-54
2022/09/13 03:08:37;;;;;;;14.55;9.20;;;;;;;-145.01;100.00;64805.59;5052286;28;20021;-54
2022/09/13 03:11:11;;;;;;;10.95;7.55;;;;;;;-145.01;100.00;64805.59;5050680;28;20020;-53
2022/09/13 03:13:49;;;;;;;10.95;7.57;;;;;;;-145.01;100.00;64805.59;5083892;28;20049;-56
2022/09/13 03:16:27;;;;;;;13.48;7.10;;;;;;;-145.01;100.00;64805.59;5050621;28;20127;-54
2022/09/13 03:19:30;;;;;;;12.48;7.15;;;;;;;-145.01;100.00;64805.59;5059362;28;20028;-56
2022/09/13 03:22:02;;;;;;;11.82;7.55;;;;;;;-145.01;100.00;64805.59;5055227;28;20078;-54
2022/09/13 03:24:32;;;;;;;10.73;7.63;;;;;;;-145.01;100.00;64805.59;5052026;28;20033;-54
2022/09/13 03:27:18;;;;;;;13.13;8.05;;;;;;;-145.01;100.00;64805.59;5050189;28;20044;-57
2022/09/13 03:29:47;;;;;;;12.50;7.82;;;;;;;-145.01;100.00;64805.59;5054936;28;20487;-56
2022/09/13 03:32:25;;;;;;;14.55;7.88;;;;;;;-145.01;100.00;64805.59;5054671;28;20468;-55
2022/09/13 03:34:58;;;;;;;12.25;7.78;;;;;;;-145.01;100.00;64805.59;5057579;28;20055;-55
2022/09/13 03:37:52;;;;;;;11.73;7.32;;;;;;;-145.01;100.00;64805.59;5058020;28;20039;-53
2022/09/13 03:40:27;;;;;;;10.73;7.57;;;;;;;-145.01;100.00;64805.59;5053818;28;20055;-54
2022/09/13 03:42:57;;;;;;;11.50;7.70;;;;;;;-145.01;100.00;64805.59;5059683;28;20433;-54
2022/09/13 03:45:25;;;;;;;13.05;7.30;;;;;;;-145.01;100.00;64805.59;5051504;28;20028;-54
2022/09/13 03:47:50;;;;;;;12.85;8.10;;;;;;;-145.01;100.00;64805.59;5083062;28;20025;-54
2022/09/13 03:50:18;;;;;;;11.20;7.38;;;;;;;-145.01;100.00;64805.59;5054962;28;20056;-56
2022/09/13 03:52:44;;;;;;;14.93;7.80;;;;;;;-145.01;100.00;64805.59;5032847;28;20120;-54
2022/09/13 03:55:09;;;;;;;11.27;7.70;;;;;;;-145.01;100.00;64805.59;5050553;28;20119;-55
2022/09/13 03:57:35;;;;;;;12.65;7.93;;;;;;;-145.01;100.00;64805.59;5056932;28;20029;-54
2022/09/13 04:00:01;;;;;;;12.05;8.32;;;;;;;-145.01;100.00;64805.59;5060490;28;20468;-54
2022/09/13 04:02:27;;;;;;;11.93;8.05;;;;;;;-145.01;100.00;64805.59;5050824;28;20464;-56
2022/09/13 04:04:52;;;;;;;12.18;7.68;;;;;;;-145.01;100.00;64805.59;5049926;28;20045;-53
2022/09/13 04:07:19;;;;;;;12.90;9.10;;;;;;;-145.01;100.00;64805.59;5054269;28;20361;-53
2022/09/13 04:09:45;;;;;;;12.15;8.77;;;;;;;-145.01;100.00;64805.59;5052870;28;20498;-54
2022/09/13 04:12:12;;;;;;;15.75;9.35;;;;;;;-145.01;100.00;64805.59;5060572;28;20032;-55
2022/09/13 04:14:38;;;;;;;20.95;9.25;;;;;;;-145.01;100.00;64805.59;5054156;28;20048;-54
2022/09/13 04:17:03;;;;;;;12.48;8.30;;;;;;;-145.01;100.00;64805.59;5058241;28;20387;-55
2022/09/13 04:19:30;;;;;;;17.85;9.27;;;;;;;-145.01;100.00;64805.59;5054117;28;20028;-56
2022/09/13 04:21:55;;;;;;;14.85;8.57;;;;;;;-145.01;100.00;64805.59;5049489;28;20564;-56
2022/09/13 04:24:26;;;;;;;16.20;9.75;;;;;;;-145.01;100.00;64805.59;5050855;28;20033;-55
2022/09/13 04:26:52;;;;;;;13.40;8.82;;;;;;;-145.01;100.00;64805.59;5054179;28;20027;-53
2022/09/13 04:29:18;;;;;;;12.75;8.68;;;;;;;-145.01;100.00;64805.59;5054551;28;20094;-53
2022/09/13 04:31:44;;;;;;;13.60;8.30;;;;;;;-145.01;100.00;64805.59;5055429;28;20021;-54
2022/09/13 04:34:09;;;;;;;17.05;8.73;;;;;;;-145.01;100.00;64805.59;5060978;28;20112;-54
2022/09/13 04:36:35;;;;;;;17.27;8.85;;;;;;;-145.01;100.00;64805.59;5053477;28;20063;-54
2022/09/13 04:39:01;;;;;;;16.48;8.00;;;;;;;-145.01;100.00;64805.59;5049729;28;20017;-54
2022/09/13 04:41:27;;;;;;;15.75;9.02;;;;;;;-145.01;100.00;64805.59;5057274;28;20460;-54
2022/09/13 04:43:52;;;;;;;17.70;9.10;;;;;;;-145.01;100.00;64805.59;5051447;28;20412;-55
2022/09/13 04:46:18;;;;;;;18.33;9.32;;;;;;;-145.01;100.00;64805.59;5056707;28;20021;-53
2022/09/13 04:48:50;;;;;;;15.90;10.43;;;;;;;-145.01;100.00;64805.59;5056403;28;20033;-56
2022/09/13 04:51:16;;;;;;;18.70;10.10;;;;;;;-145.01;100.00;64805.59;5053191;28;20053;-54
2022/09/13 04:53:44;;;;;;;18.02;10.02;;;;;;;-145.01;100.00;64805.59;5050126;28;20047;-54
2022/09/13 04:56:11;;;;;;;18.90;10.45;;;;;;;-145.01;100.00;64805.59;5049560;28;20071;-54
2022/09/13 04:58:36;;;;;;;25.60;11.02;;;;;;;-145.01;100.00;64805.59;5054191;28;20033;-54
2022/09/13 05:01:03;;;;;;;17.33;9.52;;;;;;;-145.01;100.00;64805.59;5049521;28;20079;-54
2022/09/13 05:03:30;;;;;;;18.35;10.95;;;;;;;-145.01;100.00;64805.59;5057766;28;20102;-55
2022/09/13 05:06:00;;;;;;;25.92;11.43;;;;;;;-145.01;100.00;64805.59;5049791;28;20029;-54
2022/09/13 05:08:26;;;;;;;23.00;9.95;;;;;;;-145.01;100.00;64805.59;5065518;28;20032;-54
2022/09/13 05:10:51;;;;;;;17.25;10.77;;;;;;;-145.01;100.00;64805.59;5059509;28;20033;-54
2022/09/13 05:13:17;;;;;;;22.95;10.65;;;;;;;-145.01;100.00;64805.59;5065046;28;20490;-53
2022/09/13 05:15:42;;;;;;;22.80;10.18;;;;;;;-145.01;100.00;64805.59;5056262;28;20021;-56
2022/09/13 05:18:08;;;;;;;22.25;11.07;;;;;;;-145.01;100.00;64805.59;5059791;28;20036;-55
2022/09/13 05:20:33;;;;;;;23.75;11.52;;;;;;;-145.01;100.00;64805.59;5055587;28;20395;-54
2022/09/13 05:22:58;;;;;;;18.80;9.73;;;;;;;-145.01;100.00;64805.59;5047953;28;20463;-55
2022/09/13 05:25:24;;;;;;;13.02;8.27;;;;;;;-145.01;100.00;64805.59;5060982;28;20029;-53
2022/09/13 05:27:49;;;;;;;15.13;8.90;;;;;;;-145.01;100.00;64805.59;5058032;28;20236;-55
2022/09/13 05:30:15;;;;;;;19.77;10.40;;;;;;;-145.01;100.00;64805.59;5062531;28;20691;-55
2022/09/13 05:32:40;;;;;;;16.45;9.80;;;;;;;-145.01;100.00;64805.59;5058949;28;20719;-54
2022/09/13 05:35:06;;;;;;;15.35;8.98;;;;;;;-145.01;100.00;64805.59;5056233;28;20032;-55
2022/09/13 05:37:32;;;;;;;13.48;8.63;;;;;;;-145.01;100.00;64805.59;5059230;28;20033;-54
2022/09/13 05:39:58;;;;;;;12.50;7.97;;;;;;;-145.01;100.00;64805.59;5055941;28;20484;-55
2022/09/13 05:42:23;;;;;;;15.57;7.90;;;;;;;-145.01;100.00;64805.59;5061281;28;20025;-55
2022/09/13 05:44:48;;;;;;;17.67;8.85;;;;;;;-145.01;100.00;64805.59;5059606;28;20032;-55
2022/09/13 05:47:14;;;;;;;19.88;10.02;;;;;;;-145.01;100.00;64805.59;5062299;28;20036;-55
2022/09/13 05:49:40;;;;;;;12.90;8.27;;;;;;;-145.01;100.00;64805.59;5059219;28;20057;-56
2022/09/13 05:52:05;;;;;;;15.30;9.48;;;;;;;-145.01;100.00;64805.59;5065967;28;20025;-55
2022/09/13 05:54:33;;;;;;;13.57;7.85;;;;;;;-145.01;100.00;64805.59;5061538;28;20017;-56
2022/09/13 05:56:58;;;;;;;13.73;7.88;;;;;;;-145.01;100.00;64805.59;5055971;28;20036;-56
2022/09/13 05:59:23;;;;;;;12.93;7.43;;;;;;;-145.01;100.00;64805.59;5065270;28;20028;-52
2022/09/13 06:01:49;;;;;;;15.82;7.25;;;;;;;-145.01;100.00;64805.59;5058995;28;20486;-56
2022/09/13 06:04:14;;;;;;;13.73;9.02;;;;;;;-145.01;100.00;64805.59;5065606;28;20041;-56
2022/09/13 06:06:40;;;;;;;18.10;9.35;;;;;;;-145.01;100.00;64805.59;5060362;28;20035;-56
2022/09/13 06:09:07;;;;;;;16.25;10.18;;;;;;;-145.01;100.00;64805.59;5055684;28;20029;-56
2022/09/13 06:11:33;;;;;;;19.33;10.27;;;;;;;-145.01;100.00;64805.59;5059997;28;20032;-55
2022/09/13 06:13:58;;;;;;;20.40;9.98;;;;;;;-145.01;100.00;64805.59;5091292;28;20518;-56
2022/09/13 06:16:24;;;;;;;19.73;9.40;;;;;;;-145.01;100.00;64805.59;5064562;28;20021;-56
2022/09/13 06:18:49;;;;;;;18.88;9.52;;;;;;;-145.01;100.00;64805.59;5068638;28;20059;-57
2022/09/13 06:21:19;;;;;;;25.35;9.90;;;;;;;-145.01;100.00;64805.59;5056026;28;20116;-55
2022/09/13 06:23:51;;;;;;;21.00;9.82;;;;;;;-145.01;100.00;64805.59;5034473;28;20459;-55
2022/09/13 06:26:18;;;;;;;23.00;9.77;;;;;;;-145.01;100.00;64805.59;5052728;28;20044;-55
2022/09/13 06:28:47;;;;;;;25.00;9.48;;;;;;;-145.01;100.00;64805.59;5052488;28;20107;-55
2022/09/13 06:31:13;;;;;;;26.38;13.20;;;;;;;-145.01;100.00;64805.59;5056037;28;20037;-55
2022/09/13 06:33:40;;;;;;;26.58;12.32;;;;;;;-145.01;100.00;64805.59;5057017;28;20025;-56
2022/09/13 06:36:07;;;;;;;29.65;16.92;;;;;;;-145.01;100.00;64805.59;5056270;28;20107;-55
2022/09/13 06:38:33;;;;;;;26.13;11.80;;;;;;;-145.01;100.00;64805.59;5056884;28;20041;-56
2022/09/13 06:41:03;;;;;;;25.30;9.98;;;;;;;-145.01;100.00;64805.59;5058795;28;20043;-55
2022/09/13 06:43:29;;;;;;;20.25;10.45;;;;;;;-145.01;100.00;64805.59;5052245;28;20036;-55
2022/09/13 06:45:58;;;;;;;22.88;10.75;;;;;;;-145.01;100.00;64805.59;5055434;28;20321;-54
2022/09/13 06:48:24;;;;;;;31.17;10.88;;;;;;;-145.01;100.00;64805.59;5056832;28;20028;-55
2022/09/13 06:50:49;;;;;;;20.42;10.02;;;;;;;-145.01;100.00;64805.59;5061714;28;20032;-54
2022/09/13 06:53:15;;;;;;;19.98;10.50;;;;;;;-145.01;100.00;64805.59;5055638;28;20079;-55
2022/09/13 06:55:40;;;;;;;16.55;8.82;;;;;;;-145.01;100.00;64805.59;5051968;28;20059;-55
2022/09/13 06:58:05;;;;;;;21.42;9.60;;;;;;;-145.01;100.00;64805.59;5052409;28;20033;-54
2022/09/13 07:00:31;;;;;;;16.15;9.40;;;;;;;-145.01;100.00;64805.59;5055598;28;20021;-54
2022/09/13 07:02:56;;;;;;;16.95;8.65;;;;;;;-145.01;100.00;64805.59;5058896;28;20669;-55
2022/09/13 07:05:22;;;;;;;13.93;8.52;;;;;;;-145.01;100.00;64805.59;5049550;28;20045;-55
2022/09/13 07:07:47;;;;;;;17.45;9.07;;;;;;;-145.01;100.00;64805.59;5050444;28;20029;-55
2022/09/13 07:10:13;;;;;;;12.98;7.82;;;;;;;-145.01;100.00;64805.59;5055575;28;20033;-54
2022/09/13 07:12:41;;;;;;;14.55;8.18;;;;;;;-145.01;100.00;64805.59;5050530;28;20183;-57
2022/09/13 07:15:07;;;;;;;16.60;8.50;;;;;;;-145.01;100.00;64805.59;5051136;28;20033;-53
2022/09/13 07:17:33;;;;;;;17.83;8.02;;;;;;;-145.01;100.00;64805.59;5051397;28;20108;-54
2022/09/13 07:19:58;;;;;;;14.77;8.20;;;;;;;-145.01;100.00;64805.59;5050958;28;20028;-56
2022/09/13 07:22:26;;;;;;;17.38;7.35;;;;;;;-145.01;100.00;64805.59;5051441;28;20039;-54
2022/09/13 07:24:52;;;;;;;14.77;7.38;;;;;;;-145.01;100.00;64805.59;5049935;28;20033;-54
2022/09/13 07:27:17;;;;;;;9.70;6.20;;;;;;;-145.01;100.00;64805.59;5057131;28;20021;-55
2022/09/13 07:29:43;;;;;;;10.77;6.40;;;;;;;-145.01;100.00;64805.59;5058100;28;20383;-55
2022/09/13 07:32:08;;;;;;;14.38;7.32;;;;;;;-145.01;100.00;64805.59;5059033;28;20396;-54
2022/09/13 07:34:34;;;;;;;19.55;6.95;;;;;;;-145.01;100.00;64805.59;5052763;28;20491;-53
2022/09/13 07:37:00;;;;;;;22.08;8.45;;;;;;;-145.01;100.00;64805.59;5054811;28;20032;-54
2022/09/13 07:39:25;;;;;;;19.42;8.25;;;;;;;-145.01;100.00;64805.59;5057098;28;20028;-56
2022/09/13 07:41:50;;;;;;;32.42;8.63;;;;;;;-145.01;100.00;64805.59;5063906;28;20029;-55
2022/09/13 07:44:16;;;;;;;17.85;8.35;;;;;;;-145.01;100.00;64805.59;5061778;28;20029;-55
2022/09/13 07:46:44;;;;;;;24.52;8.13;;;;;;;-145.01;100.00;64805.59;5058329;28;20353;-54
2022/09/13 07:49:11;;;;;;;22.92;8.57;;;;;;;-145.01;100.00;64805.59;5059903;28;20036;-54
2022/09/13 07:51:38;;;;;;;20.08;7.43;;;;;;;-145.01;100.00;64805.59;5055524;28;20464;-55
2022/09/13 07:54:05;;;;;;;22.13;8.52;;;;;;;-145.01;100.00;64805.59;5056966;28;20032;-55
2022/09/13 07:56:32;;;;;;;18.77;7.35;;;;;;;-145.01;100.00;64805.59;5053731;28;20497;-55
2022/09/13 07:59:02;;;;;;;12.45;7.05;;;;;;;-145.01;100.00;64805.59;5049454;28;20036;-55
2022/09/13 08:01:40;;;;;;;12.73;6.25;;;;;;;-145.01;100.00;64805.59;5054691;28;20051;-55
2022/09/13 08:04:07;;;;;;;15.55;6.68;;;;;;;-145.01;100.00;64805.59;5050270;28;20346;-56
2022/09/13 08:06:33;;;;;;;12.85;5.75;;;;;;;-145.01;100.00;64805.59;5058482;28;20029;-55
2022/09/13 08:08:59;;;;;;;13.85;5.78;;;;;;;-145.01;100.00;64805.59;5053373;28;20021;-54
2022/09/13 08:11:32;;;;;;;15.63;6.93;;;;;;;-145.01;100.00;64805.59;5055060;28;20113;-55
2022/09/13 08:13:58;;;;;;;16.95;8.10;;;;;;;-145.01;100.00;64805.59;5059855;28;20029;-55
2022/09/13 08:16:23;;;;;;;21.42;8.77;;;;;;;-145.01;100.00;64805.59;5050304;28;20375;-56
2022/09/13 08:18:51;;;;;;;21.52;8.65;;;;;;;-145.01;100.00;64805.59;5046984;28;20102;-55
2022/09/13 08:21:16;;;;;;;18.73;8.52;;;;;;;-145.01;100.00;64805.59;5055883;28;20033;-54
2022/09/13 08:23:42;;;;;;;15.70;8.45;;;;;;;-145.01;100.00;64805.59;5054868;28;20025;-55
2022/09/13 08:26:07;;;;;;;17.63;8.45;;;;;;;-145.01;100.00;64805.59;5082799;28;20028;-56
2022/09/13 08:28:33;;;;;;;24.45;9.68;;;;;;;-145.01;100.00;64805.59;5056572;28;20048;-55
2022/09/13 08:31:10;;;;;;;24.70;9.18;;;;;;;-145.01;100.00;64805.59;5055166;28;20721;-57
2022/09/13 08:33:36;;;;;;;18.42;9.05;;;;;;;-145.01;100.00;64805.59;5053499;28;20048;-56
2022/09/13 08:36:01;;;;;;;13.65;8.63;;;;;;;-145.01;100.00;64805.59;5055819;28;20468;-55
2022/09/13 08:38:27;;;;;;;20.33;10.25;;;;;;;-145.01;100.00;64805.59;5050383;28;20468;-56
2022/09/13 08:40:58;;;;;;;17.95;6.47;;;;;;;-145.01;100.00;64805.59;5055685;28;20025;-55
2022/09/13 08:43:38;;;;;;;15.70;8.68;;;;;;;-145.01;100.00;64805.59;5053467;28;20036;-56
2022/09/13 08:46:05;;;;;;;;;;;;;;;-145.01;100.00;64805.59;5055152;28;20029;-55
2022/09/13 08:48:33;;;;;;;13.35;7.40;;;;;;;-145.01;100.00;64805.59;5056597;28;19920;-55
2022/09/13 08:51:01;;;;;;;11.27;6.65;;;;;;;-145.01;100.00;64805.59;5032116;28;20055;-56
2022/09/13 08:53:28;;;;;;;13.95;6.68;;;;;;;-145.01;100.00;64805.59;5050404;28;20112;-55
2022/09/13 08:55:58;;;;;;;15.75;6.38;;;;;;;-145.01;100.00;64805.59;5049577;28;20021;-56
2022/09/13 08:59:15;;;;;;;14.75;7.25;;;;;;;-145.01;100.00;64805.59;5049158;28;20031;-56
2022/09/13 09:01:59;;;;;;;18.90;8.52;;;;;;;-145.01;100.00;64805.59;5031665;28;20045;-55
2022/09/13 09:04:27;;;;;;;22.25;8.60;;;;;;;-145.01;100.00;64805.59;5049392;28;20052;-57
2022/09/13 09:07:11;;;;;;;22.95;9.15;;;;;;;-145.01;100.00;64805.59;5054486;28;20061;-56
2022/09/13 09:09:45;;;;;;;22.90;9.05;;;;;;;-145.01;100.00;64805.59;5055272;28;20065;-56
2022/09/13 09:12:16;;;;;;;25.58;9.57;;;;;;;-145.01;100.00;64805.59;5058918;28;20043;-55
2022/09/13 09:14:43;;;;;;;29.08;9.55;;;;;;;-145.01;100.00;64805.59;5049841;28;20036;-55
2022/09/13 09:17:45;;;;;;;27.33;9.85;;;;;;;-145.01;100.00;64805.59;5052529;28;20116;-56
2022/09/13 09:20:31;;;;;;;22.02;9.18;;;;;;;-145.01;100.00;64805.59;5029097;28;20494;-56
2022/09/13 09:22:57;;;;;;;13.90;6.65;;;;;;;-145.01;100.00;64805.59;5055303;28;20036;-56
2022/09/13 09:25:23;;;;;;;11.80;6.38;;;;;;;-145.01;100.00;64805.59;5036523;28;20033;-55
2022/09/13 09:27:50;;;;;;;10.00;5.97;;;;;;;-145.01;100.00;64805.59;5055080;28;20029;-55
2022/09/13 09:30:16;;;;;;;9.45;6.40;;;;;;;-145.01;100.00;64805.59;5055316;28;20451;-55
2022/09/13 09:32:47;;;;;;;8.82;6.45;;;;;;;-145.01;100.00;64805.59;5053140;28;20059;-54
2022/09/13 09:35:42;;;;;;;12.77;6.75;;;;;;;-145.01;100.00;64805.59;5049460;28;20049;-56
2022/09/13 09:38:23;;;;;;;9.70;6.53;;;;;;;-145.01;100.00;64805.59;5048309;28;20037;-55
2022/09/13 09:40:48;;;;;;;13.20;6.22;;;;;;;-145.01;100.00;64805.59;5049719;28;20025;-56
2022/09/13 09:43:18;;;;;;;11.88;6.18;;;;;;;-145.01;100.00;64805.59;5053227;28;20079;-55
2022/09/13 09:45:44;;;;;;;;;;;;;;;-145.01;100.00;64805.59;5060011;28;20482;-55
2022/09/13 09:48:13;;;;;;;10.30;6.32;;;;;;;-145.01;100.00;64805.59;5049407;28;19920;-56
2022/09/13 09:50:46;;;;;;;9.45;5.85;;;;;;;-145.01;100.00;64805.59;5051106;28;20047;-55
2022/09/13 09:53:25;;;;;;;11.05;5.75;;;;;;;-145.01;100.00;64805.59;5048066;28;20460;-55
2022/09/13 09:55:59;;;;;;;8.77;5.60;;;;;;;-145.01;100.00;64805.59;5038148;28;20047;-57
2022/09/13 09:58:41;;;;;;;9.52;5.65;;;;;;;-145.01;100.00;64805.59;5060478;28;20380;-56
2022/09/13 10:01:26;;;;;;;8.10;4.72;;;;;;;-145.01;100.00;64805.59;5060029;28;20037;-56
2022/09/13 10:04:07;;;;;;;8.52;5.40;;;;;;;-145.01;100.00;64805.59;5057246;28;20044;-57
2022/09/13 10:06:32;;;;;;;9.90;5.38;;;;;;;-145.01;100.00;64805.59;5037089;28;20086;-57
2022/09/13 10:09:06;;;;;;;10.13;5.53;;;;;;;-145.01;100.00;64805.59;5042418;28;20060;-56
2022/09/13 10:11:57;;;;;;;13.00;5.72;;;;;;;-145.01;100.00;64805.59;5062255;28;20070;-57
2022/09/13 10:14:43;;;;;;;7.35;5.30;;;;;;;-145.01;100.00;64805.59;5053999;28;20039;-57
2022/09/13 10:17:23;;;;;;;6.82;5.05;;;;;;;-145.01;100.00;64805.59;5056975;28;20040;-56
2022/09/13 10:19:57;;;;;;;8.48;5.22;;;;;;;-145.01;100.00;64805.59;5051065;28;20017;-56
2022/09/13 10:22:23;;;;;;;7.70;4.90;;;;;;;-145.01;100.00;64805.59;5052912;28;20029;-56
2022/09/13 10:24:49;;;;;;;12.40;5.00;;;;;;;-145.01;100.00;64805.59;5055000;28;20445;-56
2022/09/13 10:27:32;;;;;;;7.28;4.70;;;;;;;-145.01;100.00;64805.59;5063407;28;20028;-56
2022/09/13 10:29:58;;;;;;;11.35;4.70;;;;;;;-145.01;100.00;64805.59;5054997;28;20029;-56
2022/09/13 10:32:25;;;;;;;8.90;4.30;;;;;;;-145.01;100.00;64805.59;5051277;28;20356;-55
2022/09/13 10:34:50;;;;;;;5.80;4.18;;;;;;;-145.01;100.00;64805.59;5034415;28;20032;-55
2022/09/13 10:37:29;;;;;;;6.55;3.90;;;;;;;-145.01;100.00;64805.59;5052294;28;20025;-56
2022/09/13 10:40:06;;;;;;;9.47;3.40;;;;;;;-145.01;100.00;64805.59;5052162;28;20391;-56
2022/09/13 10:42:32;;;;;;;4.72;3.20;;;;;;;-145.01;100.00;64805.59;5054124;28;20024;-57
2022/09/13 10:45:04;;;;;;;6.32;2.88;;;;;;;-145.01;100.00;64805.59;5053198;28;20013;-56
2022/09/13 10:47:49;;;;;;;6.80;2.90;;;;;;;-145.01;100.00;64805.59;5036231;28;20051;-57
2022/09/13 10:50:17;;;;;;;5.47;3.33;;;;;;;-145.01;100.00;64805.59;5057242;28;20099;-56
2022/09/13 10:52:50;;;;;;;8.80;3.65;;;;;;;-145.01;100.00;64805.59;5061377;28;20032;-56
2022/09/13 10:55:18;;;;;;;6.72;3.60;;;;;;;-145.01;100.00;64805.59;5057442;28;20031;-56
2022/09/13 10:57:50;;;;;;;8.85;4.10;;;;;;;-145.01;100.00;64805.59;5058904;28;20235;-56
2022/09/13 11:00:29;;;;;;;7.95;4.00;;;;;;;-145.01;100.00;64805.59;5055357;28;20029;-55
2022/09/13 11:03:25;;;;;;;7.90;4.13;;;;;;;-145.01;100.00;64805.59;5052809;28;20021;-59
2022/09/13 11:05:53;;;;;;;7.32;3.90;;;;;;;-145.01;100.00;64805.59;5056444;28;20024;-56
2022/09/13 11:08:40;;;;;;;5.60;3.72;;;;;;;-145.01;100.00;64805.59;5056554;28;20081;-56
2022/09/13 11:11:36;;;;;;;7.63;3.55;;;;;;;-145.01;100.00;64805.59;5051441;28;20064;-56
2022/09/13 11:14:11;;;;;;;8.40;4.28;;;;;;;-145.01;100.00;64805.59;5054100;28;20021;-56
2022/09/13 11:17:03;;;;;;;7.88;3.42;;;;;;;-145.01;100.00;64805.59;5051243;28;20017;-56
2022/09/13 11:19:44;;;;;;;7.68;3.58;;;;;;;-145.01;100.00;64805.59;5049600;28;20060;-55